CYWE

Wekweeti

Wekweeti, Northwest Territories, Canada
METAR CYWE 240300Z AUTO VRB02KT 9SM OVC040 04/00 A2962 RMK SLP054
Observed Flight Rules
Sep-24 @ 03:00 UTC (an hour ago) Visual Flight Rules
Wind Visibility Clouds
Variable at 2 knots 9 miles
  • Overcast at 4,000' AGL
Temperatures Readings
Current 4°C / 39°F
Dewpoint 0°C / 32°F
Humidity 75%
Altimeter 29.62" Hg
Pressure 1005.4 hPa
Elevation 371
METAR CYWE 240300Z AUTO VRB02KT 9SM OVC040 04/00 A2962 RMK SLP054
Observed Flight Rules
Sep-24 @ 03:00 UTC
(an hour ago)
VFR
Wind Visibility
Variable at 2 knots 9 miles
Clouds
  • Overcast at 4,000' AGL
Temperature Dewpoint
4°C / 39°F 0°C / 32°F
Humidity Altimeter Pressure
75% 29.62" Hg 1005.4 hPa